sensor_id;sensor_type;location;lat;lon;timestamp;temperature;humidity
19728;DHT22;10015;52.530;13.390;2023-04-03T00:01:33;3.80;99.90
19728;DHT22;10015;52.530;13.390;2023-04-03T00:04:00;3.80;99.90
19728;DHT22;10015;52.530;13.390;2023-04-03T00:06:26;3.80;99.90
19728;DHT22;10015;52.530;13.390;2023-04-03T00:08:52;3.80;99.90
19728;DHT22;10015;52.530;13.390;2023-04-03T00:11:19;3.80;99.90
19728;DHT22;10015;52.530;13.390;2023-04-03T00:13:46;3.70;99.90
19728;DHT22;10015;52.530;13.390;2023-04-03T00:16:12;3.70;99.90
19728;DHT22;10015;52.530;13.390;2023-04-03T00:18:39;3.70;99.90
19728;DHT22;10015;52.530;13.390;2023-04-03T00:21:06;3.80;99.90
19728;DHT22;10015;52.530;13.390;2023-04-03T00:23:32;3.80;99.90
19728;DHT22;10015;52.530;13.390;2023-04-03T00:25:58;3.80;99.90
19728;DHT22;10015;52.530;13.390;2023-04-03T00:28:24;3.80;99.90
19728;DHT22;10015;52.530;13.390;2023-04-03T00:30:51;3.80;99.90
19728;DHT22;10015;52.530;13.390;2023-04-03T00:33:17;3.70;99.90
19728;DHT22;10015;52.530;13.390;2023-04-03T00:35:43;3.70;99.90
19728;DHT22;10015;52.530;13.390;2023-04-03T00:38:09;3.70;99.90
19728;DHT22;10015;52.530;13.390;2023-04-03T00:40:38;3.80;99.90
19728;DHT22;10015;52.530;13.390;2023-04-03T00:43:12;3.80;99.90
19728;DHT22;10015;52.530;13.390;2023-04-03T00:45:44;3.80;99.90
19728;DHT22;10015;52.530;13.390;2023-04-03T00:48:15;3.80;99.90
19728;DHT22;10015;52.530;13.390;2023-04-03T00:50:43;3.80;99.90
19728;DHT22;10015;52.530;13.390;2023-04-03T00:53:14;3.80;99.90
19728;DHT22;10015;52.530;13.390;2023-04-03T00:55:43;3.90;99.90
19728;DHT22;10015;52.530;13.390;2023-04-03T00:58:10;3.90;99.90
19728;DHT22;10015;52.530;13.390;2023-04-03T01:00:40;3.80;99.90
19728;DHT22;10015;52.530;13.390;2023-04-03T01:03:08;3.80;99.90
19728;DHT22;10015;52.530;13.390;2023-04-03T01:05:35;3.80;99.90
19728;DHT22;10015;52.530;13.390;2023-04-03T01:08:01;3.80;99.90
19728;DHT22;10015;52.530;13.390;2023-04-03T01:10:27;3.80;99.90
19728;DHT22;10015;52.530;13.390;2023-04-03T01:12:53;3.80;99.90
19728;DHT22;10015;52.530;13.390;2023-04-03T01:15:25;3.60;99.90
19728;DHT22;10015;52.530;13.390;2023-04-03T01:17:57;3.50;99.90
19728;DHT22;10015;52.530;13.390;2023-04-03T01:23:41;3.60;99.90
19728;DHT22;10015;52.530;13.390;2023-04-03T01:26:10;3.60;99.90
19728;DHT22;10015;52.530;13.390;2023-04-03T01:28:37;3.70;99.90
19728;DHT22;10015;52.530;13.390;2023-04-03T01:31:25;3.70;99.90
19728;DHT22;10015;52.530;13.390;2023-04-03T01:33:54;3.80;99.90
19728;DHT22;10015;52.530;13.390;2023-04-03T01:36:24;3.70;99.90
19728;DHT22;10015;52.530;13.390;2023-04-03T01:38:51;3.80;99.90
19728;DHT22;10015;52.530;13.390;2023-04-03T01:41:18;3.80;99.90
19728;DHT22;10015;52.530;13.390;2023-04-03T01:43:47;3.80;99.90
19728;DHT22;10015;52.530;13.390;2023-04-03T01:46:14;3.80;99.90
19728;DHT22;10015;52.530;13.390;2023-04-03T01:48:40;3.80;99.90
19728;DHT22;10015;52.530;13.390;2023-04-03T01:51:06;3.80;99.90
19728;DHT22;10015;52.530;13.390;2023-04-03T01:53:32;3.80;99.90
19728;DHT22;10015;52.530;13.390;2023-04-03T01:55:58;3.80;99.90
19728;DHT22;10015;52.530;13.390;2023-04-03T01:58:24;3.80;99.90
19728;DHT22;10015;52.530;13.390;2023-04-03T02:00:52;3.80;99.90
19728;DHT22;10015;52.530;13.390;2023-04-03T02:03:18;3.90;99.90
19728;DHT22;10015;52.530;13.390;2023-04-03T02:05:45;3.90;99.90
19728;DHT22;10015;52.530;13.390;2023-04-03T02:08:11;3.90;99.90
19728;DHT22;10015;52.530;13.390;2023-04-03T02:10:37;3.80;99.90
19728;DHT22;10015;52.530;13.390;2023-04-03T02:13:03;3.80;99.90
19728;DHT22;10015;52.530;13.390;2023-04-03T02:15:29;3.80;99.90
19728;DHT22;10015;52.530;13.390;2023-04-03T02:17:55;3.90;99.90
19728;DHT22;10015;52.530;13.390;2023-04-03T02:20:21;3.80;99.90
19728;DHT22;10015;52.530;13.390;2023-04-03T02:22:47;3.70;99.90
19728;DHT22;10015;52.530;13.390;2023-04-03T02:25:13;3.70;99.90
19728;DHT22;10015;52.530;13.390;2023-04-03T02:27:40;3.80;99.90
19728;DHT22;10015;52.530;13.390;2023-04-03T02:30:06;3.70;99.90
19728;DHT22;10015;52.530;13.390;2023-04-03T02:32:32;3.70;99.90
19728;DHT22;10015;52.530;13.390;2023-04-03T02:34:59;3.60;99.90
19728;DHT22;10015;52.530;13.390;2023-04-03T02:37:25;3.60;99.90
19728;DHT22;10015;52.530;13.390;2023-04-03T02:39:53;3.50;99.90
19728;DHT22;10015;52.530;13.390;2023-04-03T02:42:19;3.60;99.90
19728;DHT22;10015;52.530;13.390;2023-04-03T02:44:45;3.50;99.90
19728;DHT22;10015;52.530;13.390;2023-04-03T02:47:11;3.50;99.90
19728;DHT22;10015;52.530;13.390;2023-04-03T02:49:37;3.50;99.90
19728;DHT22;10015;52.530;13.390;2023-04-03T02:52:03;3.50;99.90
19728;DHT22;10015;52.530;13.390;2023-04-03T02:54:29;3.50;99.90
19728;DHT22;10015;52.530;13.390;2023-04-03T02:56:59;3.50;99.90
19728;DHT22;10015;52.530;13.390;2023-04-03T02:59:25;3.50;99.90
19728;DHT22;10015;52.530;13.390;2023-04-03T03:01:51;3.60;99.90
19728;DHT22;10015;52.530;13.390;2023-04-03T03:04:16;3.60;99.90
19728;DHT22;10015;52.530;13.390;2023-04-03T03:06:42;3.60;99.90
19728;DHT22;10015;52.530;13.390;2023-04-03T03:09:08;3.50;99.90
19728;DHT22;10015;52.530;13.390;2023-04-03T03:11:34;3.60;99.90
19728;DHT22;10015;52.530;13.390;2023-04-03T03:14:02;3.60;99.90
19728;DHT22;10015;52.530;13.390;2023-04-03T03:16:28;3.70;99.90
19728;DHT22;10015;52.530;13.390;2023-04-03T03:18:55;3.60;99.90
19728;DHT22;10015;52.530;13.390;2023-04-03T03:21:21;3.50;99.90
19728;DHT22;10015;52.530;13.390;2023-04-03T03:23:47;3.50;99.90
19728;DHT22;10015;52.530;13.390;2023-04-03T03:26:13;3.50;99.90
19728;DHT22;10015;52.530;13.390;2023-04-03T03:28:40;3.60;99.90
19728;DHT22;10015;52.530;13.390;2023-04-03T03:31:08;3.60;99.90
19728;DHT22;10015;52.530;13.390;2023-04-03T03:33:36;3.50;99.90
19728;DHT22;10015;52.530;13.390;2023-04-03T03:36:02;3.50;99.90
19728;DHT22;10015;52.530;13.390;2023-04-03T03:38:28;3.50;99.90
19728;DHT22;10015;52.530;13.390;2023-04-03T03:40:55;3.50;99.90
19728;DHT22;10015;52.530;13.390;2023-04-03T03:43:22;3.40;99.90
19728;DHT22;10015;52.530;13.390;2023-04-03T03:45:51;3.40;99.90
19728;DHT22;10015;52.530;13.390;2023-04-03T03:48:19;3.40;99.90
19728;DHT22;10015;52.530;13.390;2023-04-03T03:50:45;3.40;99.90
19728;DHT22;10015;52.530;13.390;2023-04-03T03:53:11;3.40;99.90
19728;DHT22;10015;52.530;13.390;2023-04-03T03:55:38;3.40;99.90
19728;DHT22;10015;52.530;13.390;2023-04-03T03:58:04;3.40;99.90
19728;DHT22;10015;52.530;13.390;2023-04-03T04:00:30;3.30;99.90
19728;DHT22;10015;52.530;13.390;2023-04-03T04:02:57;3.20;99.90
19728;DHT22;10015;52.530;13.390;2023-04-03T04:05:24;3.20;99.90
19728;DHT22;10015;52.530;13.390;2023-04-03T04:07:52;3.20;99.90
19728;DHT22;10015;52.530;13.390;2023-04-03T04:10:18;3.20;99.90
19728;DHT22;10015;52.530;13.390;2023-04-03T04:12:45;3.10;99.90
19728;DHT22;10015;52.530;13.390;2023-04-03T04:15:11;3.10;99.90
19728;DHT22;10015;52.530;13.390;2023-04-03T04:17:38;3.10;99.90
19728;DHT22;10015;52.530;13.390;2023-04-03T04:20:07;3.10;99.90
19728;DHT22;10015;52.530;13.390;2023-04-03T04:22:33;3.10;99.90
19728;DHT22;10015;52.530;13.390;2023-04-03T04:24:59;3.10;99.90
19728;DHT22;10015;52.530;13.390;2023-04-03T04:27:25;3.10;99.90
19728;DHT22;10015;52.530;13.390;2023-04-03T04:29:51;3.10;99.90
19728;DHT22;10015;52.530;13.390;2023-04-03T04:32:18;3.00;99.90
19728;DHT22;10015;52.530;13.390;2023-04-03T04:34:44;3.00;99.90
19728;DHT22;10015;52.530;13.390;2023-04-03T04:37:10;3.00;99.90
19728;DHT22;10015;52.530;13.390;2023-04-03T04:39:36;3.00;99.90
19728;DHT22;10015;52.530;13.390;2023-04-03T04:42:03;3.00;99.90
19728;DHT22;10015;52.530;13.390;2023-04-03T04:44:31;3.00;99.90
19728;DHT22;10015;52.530;13.390;2023-04-03T04:46:57;3.00;99.90
19728;DHT22;10015;52.530;13.390;2023-04-03T04:49:23;2.90;99.90
19728;DHT22;10015;52.530;13.390;2023-04-03T04:51:49;2.90;99.90
19728;DHT22;10015;52.530;13.390;2023-04-03T04:54:17;3.00;99.90
19728;DHT22;10015;52.530;13.390;2023-04-03T04:56:45;3.10;99.90
19728;DHT22;10015;52.530;13.390;2023-04-03T04:59:11;3.10;99.90
19728;DHT22;10015;52.530;13.390;2023-04-03T05:01:37;3.10;99.90
19728;DHT22;10015;52.530;13.390;2023-04-03T05:04:09;3.10;99.90
19728;DHT22;10015;52.530;13.390;2023-04-03T05:06:35;3.20;99.90
19728;DHT22;10015;52.530;13.390;2023-04-03T05:09:05;3.20;99.90
19728;DHT22;10015;52.530;13.390;2023-04-03T05:11:32;3.30;99.90
19728;DHT22;10015;52.530;13.390;2023-04-03T05:13:58;3.30;99.90
19728;DHT22;10015;52.530;13.390;2023-04-03T05:16:25;3.40;99.90
19728;DHT22;10015;52.530;13.390;2023-04-03T05:18:52;3.30;99.90
19728;DHT22;10015;52.530;13.390;2023-04-03T05:21:21;3.40;99.90
19728;DHT22;10015;52.530;13.390;2023-04-03T05:23:50;3.40;99.90
19728;DHT22;10015;52.530;13.390;2023-04-03T05:26:16;3.50;99.90
19728;DHT22;10015;52.530;13.390;2023-04-03T05:28:45;3.50;99.90
19728;DHT22;10015;52.530;13.390;2023-04-03T05:31:12;3.50;99.90
19728;DHT22;10015;52.530;13.390;2023-04-03T05:33:38;3.50;99.90
19728;DHT22;10015;52.530;13.390;2023-04-03T05:36:08;3.50;99.90
19728;DHT22;10015;52.530;13.390;2023-04-03T05:38:39;3.50;99.90
19728;DHT22;10015;52.530;13.390;2023-04-03T05:41:05;3.60;99.90
19728;DHT22;10015;52.530;13.390;2023-04-03T05:43:32;3.70;99.90
19728;DHT22;10015;52.530;13.390;2023-04-03T05:45:59;3.90;99.90
19728;DHT22;10015;52.530;13.390;2023-04-03T05:48:26;4.10;99.90
19728;DHT22;10015;52.530;13.390;2023-04-03T05:50:53;4.60;99.90
19728;DHT22;10015;52.530;13.390;2023-04-03T05:53:27;5.10;99.90
19728;DHT22;10015;52.530;13.390;2023-04-03T05:55:54;5.70;99.90
19728;DHT22;10015;52.530;13.390;2023-04-03T05:58:21;6.30;99.90
19728;DHT22;10015;52.530;13.390;2023-04-03T06:00:49;6.80;99.90
19728;DHT22;10015;52.530;13.390;2023-04-03T06:03:15;7.10;99.90
19728;DHT22;10015;52.530;13.390;2023-04-03T06:05:42;7.60;99.90
19728;DHT22;10015;52.530;13.390;2023-04-03T06:08:10;8.00;99.90
19728;DHT22;10015;52.530;13.390;2023-04-03T06:10:36;8.50;99.90
19728;DHT22;10015;52.530;13.390;2023-04-03T06:13:03;8.90;99.90
19728;DHT22;10015;52.530;13.390;2023-04-03T06:15:29;9.10;99.90
19728;DHT22;10015;52.530;13.390;2023-04-03T06:17:55;9.30;99.90
19728;DHT22;10015;52.530;13.390;2023-04-03T06:20:21;9.40;99.90
19728;DHT22;10015;52.530;13.390;2023-04-03T06:22:48;9.50;99.90
19728;DHT22;10015;52.530;13.390;2023-04-03T06:25:14;9.70;99.90
19728;DHT22;10015;52.530;13.390;2023-04-03T06:27:43;9.90;99.90
19728;DHT22;10015;52.530;13.390;2023-04-03T06:30:09;10.10;99.90
19728;DHT22;10015;52.530;13.390;2023-04-03T06:32:37;10.20;99.90
19728;DHT22;10015;52.530;13.390;2023-04-03T06:35:04;10.10;99.90
19728;DHT22;10015;52.530;13.390;2023-04-03T06:37:31;10.10;99.90
19728;DHT22;10015;52.530;13.390;2023-04-03T06:39:58;10.10;99.90
19728;DHT22;10015;52.530;13.390;2023-04-03T06:42:26;10.30;99.90
19728;DHT22;10015;52.530;13.390;2023-04-03T06:44:59;10.40;99.90
19728;DHT22;10015;52.530;13.390;2023-04-03T06:47:25;10.50;99.90
19728;DHT22;10015;52.530;13.390;2023-04-03T06:49:52;10.60;99.90
19728;DHT22;10015;52.530;13.390;2023-04-03T06:52:18;10.60;99.90
19728;DHT22;10015;52.530;13.390;2023-04-03T06:54:44;10.10;99.90
19728;DHT22;10015;52.530;13.390;2023-04-03T06:57:10;9.80;99.90
19728;DHT22;10015;52.530;13.390;2023-04-03T06:59:36;9.60;99.90
19728;DHT22;10015;52.530;13.390;2023-04-03T07:02:02;9.70;99.90
19728;DHT22;10015;52.530;13.390;2023-04-03T07:04:29;9.80;99.90
19728;DHT22;10015;52.530;13.390;2023-04-03T07:06:54;10.00;99.90
19728;DHT22;10015;52.530;13.390;2023-04-03T07:09:21;9.90;99.90
19728;DHT22;10015;52.530;13.390;2023-04-03T07:11:47;9.70;99.90
19728;DHT22;10015;52.530;13.390;2023-04-03T07:14:13;9.60;99.90
19728;DHT22;10015;52.530;13.390;2023-04-03T07:16:39;9.80;99.90
19728;DHT22;10015;52.530;13.390;2023-04-03T07:19:05;10.00;99.90
19728;DHT22;10015;52.530;13.390;2023-04-03T07:21:31;10.00;99.90
19728;DHT22;10015;52.530;13.390;2023-04-03T07:23:57;9.90;99.90
19728;DHT22;10015;52.530;13.390;2023-04-03T07:26:23;9.80;99.90
19728;DHT22;10015;52.530;13.390;2023-04-03T07:28:49;9.70;99.90
19728;DHT22;10015;52.530;13.390;2023-04-03T07:31:16;9.20;99.90
19728;DHT22;10015;52.530;13.390;2023-04-03T07:33:43;8.40;99.90
19728;DHT22;10015;52.530;13.390;2023-04-03T07:36:11;8.10;99.90
19728;DHT22;10015;52.530;13.390;2023-04-03T07:38:39;8.10;99.90
19728;DHT22;10015;52.530;13.390;2023-04-03T07:41:06;8.10;99.90
19728;DHT22;10015;52.530;13.390;2023-04-03T07:43:32;8.20;99.90
19728;DHT22;10015;52.530;13.390;2023-04-03T07:45:59;8.30;99.90
19728;DHT22;10015;52.530;13.390;2023-04-03T07:48:26;8.30;99.90
19728;DHT22;10015;52.530;13.390;2023-04-03T07:50:52;8.60;99.90
19728;DHT22;10015;52.530;13.390;2023-04-03T07:53:18;8.30;99.90
19728;DHT22;10015;52.530;13.390;2023-04-03T07:55:48;8.40;99.90
19728;DHT22;10015;52.530;13.390;2023-04-03T07:58:18;8.40;99.90
19728;DHT22;10015;52.530;13.390;2023-04-03T08:00:45;8.00;99.90
19728;DHT22;10015;52.530;13.390;2023-04-03T08:03:12;7.80;99.90
19728;DHT22;10015;52.530;13.390;2023-04-03T08:05:40;7.30;99.90
19728;DHT22;10015;52.530;13.390;2023-04-03T08:08:08;6.90;99.90
19728;DHT22;10015;52.530;13.390;2023-04-03T08:10:34;6.40;99.90
19728;DHT22;10015;52.530;13.390;2023-04-03T08:13:00;6.10;99.90
19728;DHT22;10015;52.530;13.390;2023-04-03T08:15:26;6.00;99.90
19728;DHT22;10015;52.530;13.390;2023-04-03T08:17:53;6.00;99.90
19728;DHT22;10015;52.530;13.390;2023-04-03T08:20:19;5.90;99.90
19728;DHT22;10015;52.530;13.390;2023-04-03T08:22:46;5.80;99.90
19728;DHT22;10015;52.530;13.390;2023-04-03T08:25:12;5.80;99.90
19728;DHT22;10015;52.530;13.390;2023-04-03T08:27:38;5.80;99.90
19728;DHT22;10015;52.530;13.390;2023-04-03T08:30:05;5.70;99.90
19728;DHT22;10015;52.530;13.390;2023-04-03T08:32:33;5.60;99.90
19728;DHT22;10015;52.530;13.390;2023-04-03T08:35:00;5.60;99.90
19728;DHT22;10015;52.530;13.390;2023-04-03T08:37:26;5.50;99.90
19728;DHT22;10015;52.530;13.390;2023-04-03T08:39:52;5.60;99.90
19728;DHT22;10015;52.530;13.390;2023-04-03T08:45:25;5.70;99.90
19728;DHT22;10015;52.530;13.390;2023-04-03T08:47:59;5.70;99.90
19728;DHT22;10015;52.530;13.390;2023-04-03T08:50:45;5.70;99.90
19728;DHT22;10015;52.530;13.390;2023-04-03T08:53:19;5.60;99.90
19728;DHT22;10015;52.530;13.390;2023-04-03T08:55:47;5.70;99.90
19728;DHT22;10015;52.530;13.390;2023-04-03T08:58:27;5.70;99.90
19728;DHT22;10015;52.530;13.390;2023-04-03T09:01:03;5.70;99.90
19728;DHT22;10015;52.530;13.390;2023-04-03T09:03:32;5.60;99.90
19728;DHT22;10015;52.530;13.390;2023-04-03T09:14:33;6.20;99.90
19728;DHT22;10015;52.530;13.390;2023-04-03T09:17:20;6.20;99.90
19728;DHT22;10015;52.530;13.390;2023-04-03T09:19:58;6.10;99.90
19728;DHT22;10015;52.530;13.390;2023-04-03T09:22:28;6.10;99.90
19728;DHT22;10015;52.530;13.390;2023-04-03T09:25:30;6.20;99.90
19728;DHT22;10015;52.530;13.390;2023-04-03T09:28:00;6.30;99.90
19728;DHT22;10015;52.530;13.390;2023-04-03T09:30:28;6.60;99.90
19728;DHT22;10015;52.530;13.390;2023-04-03T09:32:57;7.00;99.90
19728;DHT22;10015;52.530;13.390;2023-04-03T09:38:16;7.50;99.90
19728;DHT22;10015;52.530;13.390;2023-04-03T09:40:51;7.50;99.90
19728;DHT22;10015;52.530;13.390;2023-04-03T09:43:29;7.10;99.90
19728;DHT22;10015;52.530;13.390;2023-04-03T09:46:17;7.00;99.90
19728;DHT22;10015;52.530;13.390;2023-04-03T09:49:00;7.10;99.90
19728;DHT22;10015;52.530;13.390;2023-04-03T09:51:27;6.80;99.90
19728;DHT22;10015;52.530;13.390;2023-04-03T09:53:55;6.60;99.90
19728;DHT22;10015;52.530;13.390;2023-04-03T09:56:29;6.50;99.90
19728;DHT22;10015;52.530;13.390;2023-04-03T10:01:36;6.40;99.90
19728;DHT22;10015;52.530;13.390;2023-04-03T10:04:19;6.40;99.90
19728;DHT22;10015;52.530;13.390;2023-04-03T10:06:49;6.50;99.90
19728;DHT22;10015;52.530;13.390;2023-04-03T10:09:23;6.50;99.90
19728;DHT22;10015;52.530;13.390;2023-04-03T10:12:09;6.80;99.90
19728;DHT22;10015;52.530;13.390;2023-04-03T10:14:40;7.00;99.90
19728;DHT22;10015;52.530;13.390;2023-04-03T10:17:31;7.20;99.90
19728;DHT22;10015;52.530;13.390;2023-04-03T10:23:21;7.30;99.90
19728;DHT22;10015;52.530;13.390;2023-04-03T10:26:04;8.00;99.90
19728;DHT22;10015;52.530;13.390;2023-04-03T10:28:47;8.70;99.90
19728;DHT22;10015;52.530;13.390;2023-04-03T10:31:25;8.20;99.90
19728;DHT22;10015;52.530;13.390;2023-04-03T10:45:18;7.60;99.90
19728;DHT22;10015;52.530;13.390;2023-04-03T10:50:31;7.60;99.90
19728;DHT22;10015;52.530;13.390;2023-04-03T10:53:17;7.50;99.90
19728;DHT22;10015;52.530;13.390;2023-04-03T10:56:11;7.40;99.90
19728;DHT22;10015;52.530;13.390;2023-04-03T10:58:44;7.40;99.90
19728;DHT22;10015;52.530;13.390;2023-04-03T11:01:21;7.40;99.90
19728;DHT22;10015;52.530;13.390;2023-04-03T11:03:53;7.50;99.90
19728;DHT22;10015;52.530;13.390;2023-04-03T11:06:22;7.50;99.90
19728;DHT22;10015;52.530;13.390;2023-04-03T11:08:51;7.30;99.90
19728;DHT22;10015;52.530;13.390;2023-04-03T11:11:24;7.10;99.90
19728;DHT22;10015;52.530;13.390;2023-04-03T11:16:24;6.90;99.90
19728;DHT22;10015;52.530;13.390;2023-04-03T11:19:01;7.00;99.90
19728;DHT22;10015;52.530;13.390;2023-04-03T11:21:39;6.80;99.90
19728;DHT22;10015;52.530;13.390;2023-04-03T11:24:27;6.70;99.90
19728;DHT22;10015;52.530;13.390;2023-04-03T11:26:56;6.70;99.90
19728;DHT22;10015;52.530;13.390;2023-04-03T11:29:43;6.70;99.90
19728;DHT22;10015;52.530;13.390;2023-04-03T11:32:33;6.70;99.90
19728;DHT22;10015;52.530;13.390;2023-04-03T11:35:05;6.70;99.90
19728;DHT22;10015;52.530;13.390;2023-04-03T11:37:40;6.70;99.90
19728;DHT22;10015;52.530;13.390;2023-04-03T11:40:28;6.60;99.90
19728;DHT22;10015;52.530;13.390;2023-04-03T11:47:59;7.00;99.90
19728;DHT22;10015;52.530;13.390;2023-04-03T12:11:32;7.20;99.90
19728;DHT22;10015;52.530;13.390;2023-04-03T12:26:43;7.30;99.90
19728;DHT22;10015;52.530;13.390;2023-04-03T12:29:21;7.30;99.90
19728;DHT22;10015;52.530;13.390;2023-04-03T12:31:58;7.20;99.90
19728;DHT22;10015;52.530;13.390;2023-04-03T12:34:45;7.10;99.90
19728;DHT22;10015;52.530;13.390;2023-04-03T12:48:54;7.10;99.90
19728;DHT22;10015;52.530;13.390;2023-04-03T12:51:22;7.30;99.90
19728;DHT22;10015;52.530;13.390;2023-04-03T12:53:54;7.40;99.90
19728;DHT22;10015;52.530;13.390;2023-04-03T12:56:28;7.30;99.90
19728;DHT22;10015;52.530;13.390;2023-04-03T12:58:56;7.30;99.90
19728;DHT22;10015;52.530;13.390;2023-04-03T13:01:38;7.30;99.90
19728;DHT22;10015;52.530;13.390;2023-04-03T13:04:04;7.20;99.90
19728;DHT22;10015;52.530;13.390;2023-04-03T13:06:42;7.20;99.90
19728;DHT22;10015;52.530;13.390;2023-04-03T13:09:30;7.40;99.90
19728;DHT22;10015;52.530;13.390;2023-04-03T13:12:01;7.50;99.90
19728;DHT22;10015;52.530;13.390;2023-04-03T13:14:29;7.30;99.90
19728;DHT22;10015;52.530;13.390;2023-04-03T13:17:03;7.20;99.90
19728;DHT22;10015;52.530;13.390;2023-04-03T13:19:31;7.20;99.90
19728;DHT22;10015;52.530;13.390;2023-04-03T13:22:31;7.20;99.90
19728;DHT22;10015;52.530;13.390;2023-04-03T13:24:57;7.00;99.90
19728;DHT22;10015;52.530;13.390;2023-04-03T13:27:23;6.90;99.90
19728;DHT22;10015;52.530;13.390;2023-04-03T13:29:53;6.90;99.90
19728;DHT22;10015;52.530;13.390;2023-04-03T13:32:22;6.80;99.90
19728;DHT22;10015;52.530;13.390;2023-04-03T13:34:49;6.80;99.90
19728;DHT22;10015;52.530;13.390;2023-04-03T13:37:24;6.90;99.90
19728;DHT22;10015;52.530;13.390;2023-04-03T13:40:08;7.00;99.90
19728;DHT22;10015;52.530;13.390;2023-04-03T13:42:38;6.90;99.90
19728;DHT22;10015;52.530;13.390;2023-04-03T13:45:17;6.80;99.90
19728;DHT22;10015;52.530;13.390;2023-04-03T13:47:47;6.80;99.90
19728;DHT22;10015;52.530;13.390;2023-04-03T13:50:20;6.90;99.90
19728;DHT22;10015;52.530;13.390;2023-04-03T13:55:24;6.70;99.90
19728;DHT22;10015;52.530;13.390;2023-04-03T13:57:58;6.70;99.90
19728;DHT22;10015;52.530;13.390;2023-04-03T14:00:28;6.80;99.90
19728;DHT22;10015;52.530;13.390;2023-04-03T14:02:56;6.90;99.90
19728;DHT22;10015;52.530;13.390;2023-04-03T14:05:23;6.90;99.90
19728;DHT22;10015;52.530;13.390;2023-04-03T14:07:52;6.80;99.90
19728;DHT22;10015;52.530;13.390;2023-04-03T14:10:18;6.90;99.90
19728;DHT22;10015;52.530;13.390;2023-04-03T14:12:45;6.90;99.90
19728;DHT22;10015;52.530;13.390;2023-04-03T14:17:43;6.90;99.90
19728;DHT22;10015;52.530;13.390;2023-04-03T14:20:18;7.00;99.90
19728;DHT22;10015;52.530;13.390;2023-04-03T14:22:44;7.00;99.90
19728;DHT22;10015;52.530;13.390;2023-04-03T14:25:10;7.10;99.90
19728;DHT22;10015;52.530;13.390;2023-04-03T14:27:39;7.20;99.90
19728;DHT22;10015;52.530;13.390;2023-04-03T14:30:20;7.20;99.90
19728;DHT22;10015;52.530;13.390;2023-04-03T14:32:47;7.20;99.90
19728;DHT22;10015;52.530;13.390;2023-04-03T14:35:13;7.30;99.90
19728;DHT22;10015;52.530;13.390;2023-04-03T14:37:40;7.20;99.90
19728;DHT22;10015;52.530;13.390;2023-04-03T14:40:07;7.40;99.90
19728;DHT22;10015;52.530;13.390;2023-04-03T14:42:36;7.70;99.90
19728;DHT22;10015;52.530;13.390;2023-04-03T14:45:05;7.60;99.90
19728;DHT22;10015;52.530;13.390;2023-04-03T14:47:32;7.80;99.90
19728;DHT22;10015;52.530;13.390;2023-04-03T14:50:00;7.80;99.90
19728;DHT22;10015;52.530;13.390;2023-04-03T14:52:31;7.90;99.90
19728;DHT22;10015;52.530;13.390;2023-04-03T14:54:58;7.90;99.90
19728;DHT22;10015;52.530;13.390;2023-04-03T14:57:26;7.90;99.90
19728;DHT22;10015;52.530;13.390;2023-04-03T14:59:52;7.90;99.90
19728;DHT22;10015;52.530;13.390;2023-04-03T15:02:32;7.90;99.90
19728;DHT22;10015;52.530;13.390;2023-04-03T15:04:59;7.70;99.90
19728;DHT22;10015;52.530;13.390;2023-04-03T15:07:27;7.40;99.90
19728;DHT22;10015;52.530;13.390;2023-04-03T15:09:54;7.20;99.90
19728;DHT22;10015;52.530;13.390;2023-04-03T15:12:23;7.10;99.90
19728;DHT22;10015;52.530;13.390;2023-04-03T15:14:49;6.90;99.90
19728;DHT22;10015;52.530;13.390;2023-04-03T15:17:17;6.80;99.90
19728;DHT22;10015;52.530;13.390;2023-04-03T15:19:45;6.90;99.90
19728;DHT22;10015;52.530;13.390;2023-04-03T15:22:15;7.10;99.90
19728;DHT22;10015;52.530;13.390;2023-04-03T15:24:42;7.10;99.90
19728;DHT22;10015;52.530;13.390;2023-04-03T15:27:09;7.00;99.90
19728;DHT22;10015;52.530;13.390;2023-04-03T15:29:35;6.90;99.90
19728;DHT22;10015;52.530;13.390;2023-04-03T15:32:02;6.60;99.90
19728;DHT22;10015;52.530;13.390;2023-04-03T15:34:29;6.50;99.90
19728;DHT22;10015;52.530;13.390;2023-04-03T15:36:55;6.40;99.90
19728;DHT22;10015;52.530;13.390;2023-04-03T15:39:21;6.30;99.90
19728;DHT22;10015;52.530;13.390;2023-04-03T15:41:48;6.30;99.90
19728;DHT22;10015;52.530;13.390;2023-04-03T15:44:14;6.30;99.90
19728;DHT22;10015;52.530;13.390;2023-04-03T15:46:46;6.40;99.90
19728;DHT22;10015;52.530;13.390;2023-04-03T15:49:14;6.40;99.90
19728;DHT22;10015;52.530;13.390;2023-04-03T15:51:40;6.30;99.90
19728;DHT22;10015;52.530;13.390;2023-04-03T15:54:06;6.20;99.90
19728;DHT22;10015;52.530;13.390;2023-04-03T15:56:32;6.20;99.90
19728;DHT22;10015;52.530;13.390;2023-04-03T15:58:58;6.30;99.90
19728;DHT22;10015;52.530;13.390;2023-04-03T16:01:24;6.10;99.90
19728;DHT22;10015;52.530;13.390;2023-04-03T16:03:51;6.20;99.90
19728;DHT22;10015;52.530;13.390;2023-04-03T16:06:18;6.30;99.90
19728;DHT22;10015;52.530;13.390;2023-04-03T16:08:46;6.30;99.90
19728;DHT22;10015;52.530;13.390;2023-04-03T16:11:13;6.20;99.90
19728;DHT22;10015;52.530;13.390;2023-04-03T16:13:39;6.20;99.90
19728;DHT22;10015;52.530;13.390;2023-04-03T16:16:06;6.30;99.90
19728;DHT22;10015;52.530;13.390;2023-04-03T16:18:34;6.40;99.90
19728;DHT22;10015;52.530;13.390;2023-04-03T16:21:00;6.60;99.90
19728;DHT22;10015;52.530;13.390;2023-04-03T16:23:26;6.80;99.90
19728;DHT22;10015;52.530;13.390;2023-04-03T16:25:52;7.00;99.90
19728;DHT22;10015;52.530;13.390;2023-04-03T16:28:18;7.10;99.90
19728;DHT22;10015;52.530;13.390;2023-04-03T16:30:45;7.20;99.90
19728;DHT22;10015;52.530;13.390;2023-04-03T16:33:12;7.30;99.90
19728;DHT22;10015;52.530;13.390;2023-04-03T16:35:39;7.30;99.90
19728;DHT22;10015;52.530;13.390;2023-04-03T16:38:05;7.20;99.90
19728;DHT22;10015;52.530;13.390;2023-04-03T16:40:31;7.00;99.90
19728;DHT22;10015;52.530;13.390;2023-04-03T16:43:00;7.00;99.90
19728;DHT22;10015;52.530;13.390;2023-04-03T16:45:26;6.90;99.90
19728;DHT22;10015;52.530;13.390;2023-04-03T16:47:52;6.70;99.90
19728;DHT22;10015;52.530;13.390;2023-04-03T16:50:18;6.60;99.90
19728;DHT22;10015;52.530;13.390;2023-04-03T16:52:48;6.40;99.90
19728;DHT22;10015;52.530;13.390;2023-04-03T16:55:14;6.20;99.90
19728;DHT22;10015;52.530;13.390;2023-04-03T16:57:40;6.10;99.90
19728;DHT22;10015;52.530;13.390;2023-04-03T17:00:06;6.00;99.90
19728;DHT22;10015;52.530;13.390;2023-04-03T17:02:32;6.10;99.90
19728;DHT22;10015;52.530;13.390;2023-04-03T17:04:58;6.10;99.90
19728;DHT22;10015;52.530;13.390;2023-04-03T17:07:25;6.10;99.90
19728;DHT22;10015;52.530;13.390;2023-04-03T17:09:52;6.00;99.90
19728;DHT22;10015;52.530;13.390;2023-04-03T17:12:20;6.10;99.90
19728;DHT22;10015;52.530;13.390;2023-04-03T17:14:46;6.10;99.90
19728;DHT22;10015;52.530;13.390;2023-04-03T17:17:14;6.10;99.90